Time;durP1;ratioP1;P1;durP2;ratioP2;P2;SDS_P1;SDS_P2;PMS_P1;PMS_P2;Temp;Humidity;BMP_temperature;BMP_pressure;BME280_temperature;BME280_humidity;BME280_pressure;Samples;Min_cycle;Max_cycle;Signal;HPM_P1;HPM_P2
2021/04/29 00:01:54;;;;;;;17.52;15.25;;;13.40;99.90;;;;;;5070482;28;20206;-70
2021/04/29 00:04:21;;;;;;;17.88;15.90;;;13.30;99.90;;;;;;5071154;28;20236;-69
2021/04/29 00:06:47;;;;;;;17.83;15.55;;;13.30;99.90;;;;;;5070579;28;20628;-68
2021/04/29 00:09:14;;;;;;;17.23;15.40;;;13.30;99.90;;;;;;5070772;28;20206;-69
2021/04/29 00:11:41;;;;;;;16.13;14.52;;;13.30;99.90;;;;;;5070218;28;20721;-69
2021/04/29 00:14:11;;;;;;;13.95;12.18;;;13.20;99.90;;;;;;5071067;28;20205;-68
2021/04/29 00:16:38;;;;;;;14.52;13.02;;;13.10;99.90;;;;;;5070921;28;20233;-69
2021/04/29 00:19:04;;;;;;;12.55;11.45;;;13.10;99.90;;;;;;5071135;28;20723;-69
2021/04/29 00:21:31;;;;;;;9.98;8.95;;;13.10;99.90;;;;;;5070906;28;20209;-68
2021/04/29 00:23:58;;;;;;;10.88;9.10;;;13.10;99.90;;;;;;5070361;28;20202;-68
2021/04/29 00:26:24;;;;;;;11.30;9.02;;;13.10;99.90;;;;;;5070948;28;20210;-69
2021/04/29 00:28:52;;;;;;;8.80;7.75;;;13.10;99.90;;;;;;5069876;28;20206;-68
2021/04/29 00:31:19;;;;;;;9.40;7.82;;;13.10;99.90;;;;;;5070544;28;20234;-70
2021/04/29 00:33:46;;;;;;;9.77;8.80;;;13.00;99.90;;;;;;5070178;28;20206;-68
2021/04/29 00:36:12;;;;;;;9.05;7.45;;;13.00;99.90;;;;;;5070570;28;20451;-69
2021/04/29 00:38:39;;;;;;;15.85;9.55;;;13.00;99.90;;;;;;5070906;28;20264;-69
2021/04/29 00:41:06;;;;;;;7.97;7.18;;;13.00;99.90;;;;;;5070880;28;20206;-69
2021/04/29 00:43:33;;;;;;;13.52;6.82;;;13.00;99.90;;;;;;5070901;28;20689;-69
2021/04/29 00:45:59;;;;;;;11.27;7.15;;;12.90;99.90;;;;;;5070097;28;20725;-70
2021/04/29 00:48:27;;;;;;;9.00;7.10;;;12.80;99.90;;;;;;5070600;28;20221;-69
2021/04/29 00:50:53;;;;;;;7.15;6.43;;;12.80;99.90;;;;;;5070087;28;20234;-73
2021/04/29 00:53:20;;;;;;;11.27;7.10;;;12.70;99.90;;;;;;5070392;28;20210;-69
2021/04/29 00:55:46;;;;;;;8.32;7.40;;;12.60;99.90;;;;;;5069976;28;20206;-70
2021/04/29 00:58:13;;;;;;;10.30;6.53;;;12.50;99.90;;;;;;5070258;28;20643;-70
2021/04/29 01:00:40;;;;;;;7.65;6.78;;;12.40;99.90;;;;;;5070052;28;20213;-69
2021/04/29 01:03:14;;;;;;;9.50;6.65;;;12.30;99.90;;;;;;5070378;28;20214;-70
2021/04/29 01:05:48;;;;;;;9.32;5.45;;;12.20;99.90;;;;;;5069821;28;20210;-70
2021/04/29 01:08:20;;;;;;;9.88;6.90;;;12.20;99.90;;;;;;5070079;28;20666;-71
2021/04/29 01:10:52;;;;;;;9.40;6.55;;;12.20;99.90;;;;;;5069762;28;20291;-70
2021/04/29 01:13:24;;;;;;;9.88;6.30;;;12.20;99.90;;;;;;5070282;28;20202;-70
2021/04/29 01:15:51;;;;;;;12.05;6.88;;;12.10;99.90;;;;;;5069841;28;20221;-73
2021/04/29 01:18:21;;;;;;;10.93;5.40;;;12.10;99.90;;;;;;5069960;28;20210;-69
2021/04/29 01:20:57;;;;;;;9.35;5.55;;;12.10;99.90;;;;;;5069896;28;20206;-69
2021/04/29 01:23:33;;;;;;;13.48;6.35;;;12.10;99.90;;;;;;5070134;28;20271;-69
2021/04/29 01:26:06;;;;;;;7.32;5.88;;;12.10;99.90;;;;;;5069587;28;20209;-73
2021/04/29 01:28:34;;;;;;;11.13;6.57;;;12.10;99.90;;;;;;5070287;28;20218;-73
2021/04/29 01:31:01;;;;;;;8.73;5.82;;;12.10;99.90;;;;;;5069630;28;20241;-69
2021/04/29 01:33:28;;;;;;;8.02;6.50;;;12.10;99.90;;;;;;5070386;28;20213;-70
2021/04/29 01:35:55;;;;;;;6.33;5.03;;;12.00;99.90;;;;;;5069634;28;20206;-68
2021/04/29 01:38:22;;;;;;;10.33;5.67;;;12.00;99.90;;;;;;5069856;28;20678;-74
2021/04/29 01:40:48;;;;;;;14.05;6.20;;;11.90;99.90;;;;;;5070795;28;20214;-73
2021/04/29 01:43:15;;;;;;;7.57;6.20;;;11.90;99.90;;;;;;5073676;28;20210;-69
2021/04/29 01:45:43;;;;;;;9.80;5.87;;;11.80;99.90;;;;;;5073639;28;20202;-68
2021/04/29 01:48:10;;;;;;;9.30;6.17;;;11.80;99.90;;;;;;5073598;28;20588;-70
2021/04/29 01:50:38;;;;;;;9.90;5.50;;;11.80;99.90;;;;;;5073968;28;20279;-69
2021/04/29 01:53:06;;;;;;;9.63;6.00;;;11.80;99.90;;;;;;5073682;28;20293;-69
2021/04/29 01:55:32;;;;;;;7.60;6.28;;;11.70;99.90;;;;;;5073332;28;20297;-70
2021/04/29 01:57:59;;;;;;;11.07;5.87;;;11.70;99.90;;;;;;5073232;28;20395;-73
2021/04/29 02:00:26;;;;;;;9.68;6.65;;;11.70;99.90;;;;;;5073533;28;20221;-70
2021/04/29 02:02:53;;;;;;;16.03;5.93;;;11.70;99.90;;;;;;5073263;28;20202;-72
2021/04/29 02:05:20;;;;;;;8.07;5.90;;;11.70;99.90;;;;;;5073091;28;20210;-69
2021/04/29 02:07:46;;;;;;;9.33;6.50;;;11.60;99.90;;;;;;5072844;28;20568;-74
2021/04/29 02:10:17;;;;;;;13.10;6.23;;;11.60;99.90;;;;;;5073072;28;20256;-70
2021/04/29 02:12:48;;;;;;;6.93;5.70;;;11.60;99.90;;;;;;5073077;28;20210;-70
2021/04/29 02:15:16;;;;;;;9.07;5.63;;;11.60;99.90;;;;;;5073161;28;20229;-74
2021/04/29 02:17:47;;;;;;;7.77;5.43;;;11.50;99.90;;;;;;5072776;28;20210;-73
2021/04/29 02:20:15;;;;;;;8.82;5.68;;;11.50;99.90;;;;;;5073174;28;20210;-71
2021/04/29 02:22:43;;;;;;;9.97;6.40;;;11.60;99.90;;;;;;5072666;28;20217;-70
2021/04/29 02:25:14;;;;;;;9.43;6.90;;;11.50;99.90;;;;;;5073128;28;20236;-69
2021/04/29 02:27:41;;;;;;;9.43;6.63;;;11.50;99.90;;;;;;5079906;28;20224;-70
2021/04/29 02:30:11;;;;;;;8.03;5.97;;;11.60;99.90;;;;;;5093506;28;20553;-70
2021/04/29 02:32:38;;;;;;;8.13;6.73;;;11.40;99.90;;;;;;5093149;28;20202;-69
2021/04/29 02:35:06;;;;;;;10.03;6.80;;;11.50;99.90;;;;;;5093299;28;20206;-72
2021/04/29 02:37:36;;;;;;;9.77;7.20;;;11.40;99.90;;;;;;5093440;28;20205;-73
2021/04/29 02:40:03;;;;;;;8.97;6.10;;;11.30;99.90;;;;;;5092515;28;20212;-69
2021/04/29 02:42:30;;;;;;;10.93;6.17;;;11.30;99.90;;;;;;5093145;28;20282;-72
2021/04/29 02:44:56;;;;;;;6.80;5.97;;;11.30;99.90;;;;;;5092602;28;20201;-71
2021/04/29 02:47:23;;;;;;;11.60;6.70;;;11.30;99.90;;;;;;5092734;28;20202;-71
2021/04/29 02:49:50;;;;;;;7.13;5.90;;;11.20;99.90;;;;;;5092280;28;20286;-73
2021/04/29 02:52:17;;;;;;;6.67;5.97;;;11.20;99.90;;;;;;5091816;28;20229;-69
2021/04/29 02:54:45;;;;;;;6.87;6.03;;;11.30;99.90;;;;;;5092659;28;20206;-71
2021/04/29 02:57:20;;;;;;;11.77;7.00;;;11.30;99.90;;;;;;5092715;28;20228;-75
2021/04/29 02:59:46;;;;;;;8.67;5.87;;;11.20;99.90;;;;;;5092396;28;20201;-70
2021/04/29 03:02:13;;;;;;;8.60;6.27;;;11.20;99.90;;;;;;5092300;28;20214;-69
2021/04/29 03:04:39;;;;;;;7.63;6.03;;;11.20;99.90;;;;;;5092432;28;20228;-70
2021/04/29 03:07:06;;;;;;;8.83;6.77;;;11.20;99.90;;;;;;5092870;28;20210;-71
2021/04/29 03:09:32;;;;;;;8.23;6.73;;;11.20;99.90;;;;;;5092429;28;20202;-76
2021/04/29 03:12:00;;;;;;;13.07;6.60;;;11.20;99.90;;;;;;5091863;28;20236;-71
2021/04/29 03:14:26;;;;;;;10.60;7.03;;;11.10;99.90;;;;;;5092361;28;20206;-70
2021/04/29 03:16:53;;;;;;;6.90;6.20;;;11.10;99.90;;;;;;5091849;28;20205;-71
2021/04/29 03:19:19;;;;;;;7.23;6.03;;;11.10;99.90;;;;;;5092009;28;20206;-74
2021/04/29 03:21:45;;;;;;;6.83;6.23;;;11.10;99.90;;;;;;5091686;28;20209;-77
2021/04/29 03:24:12;;;;;;;11.10;6.73;;;11.10;99.90;;;;;;5092322;28;20213;-71
2021/04/29 03:26:38;;;;;;;6.13;5.33;;;11.00;99.90;;;;;;5091832;28;20198;-76
2021/04/29 03:29:06;;;;;;;6.70;5.40;;;11.00;99.90;;;;;;5092572;28;20704;-76
2021/04/29 03:31:32;;;;;;;9.80;5.93;;;11.00;99.90;;;;;;5092254;28;20229;-77
2021/04/29 03:33:59;;;;;;;6.97;5.73;;;11.00;99.90;;;;;;5091916;28;20255;-73
2021/04/29 03:36:25;;;;;;;7.47;5.53;;;11.00;99.90;;;;;;5091644;28;20201;-70
2021/04/29 03:38:52;;;;;;;10.27;6.43;;;11.00;99.90;;;;;;5091749;28;20202;-70
2021/04/29 03:41:18;;;;;;;6.43;5.77;;;11.00;99.90;;;;;;5091736;28;20583;-70
2021/04/29 03:43:44;;;;;;;5.63;5.00;;;11.00;99.90;;;;;;5091327;28;20620;-74
2021/04/29 03:46:12;;;;;;;10.17;6.77;;;11.00;99.90;;;;;;5091764;28;20206;-70
2021/04/29 03:48:38;;;;;;;12.70;5.83;;;11.20;99.90;;;;;;5091469;28;20271;-71
2021/04/29 03:51:05;;;;;;;9.40;5.33;;;11.30;99.90;;;;;;5091907;28;20229;-72
2021/04/29 03:53:31;;;;;;;6.97;4.63;;;11.10;99.90;;;;;;5091491;28;20209;-72
2021/04/29 03:55:58;;;;;;;7.97;5.83;;;11.10;99.90;;;;;;5091082;28;20225;-72
2021/04/29 03:58:24;;;;;;;7.53;5.50;;;11.00;99.90;;;;;;5091391;28;20209;-73
2021/04/29 04:00:51;;;;;;;9.13;6.93;;;11.00;99.90;;;;;;5090954;28;20209;-72
2021/04/29 04:03:18;;;;;;;4.87;4.47;;;10.90;99.90;;;;;;5091385;28;20201;-75
2021/04/29 04:05:45;;;;;;;10.83;6.53;;;10.80;99.90;;;;;;5090118;28;20299;-70
2021/04/29 04:08:11;;;;;;;8.47;6.07;;;10.70;99.90;;;;;;5091532;28;20201;-75
2021/04/29 04:10:38;;;;;;;9.20;5.27;;;10.60;99.90;;;;;;5091167;28;20228;-69
2021/04/29 04:13:04;;;;;;;6.97;5.47;;;10.50;99.90;;;;;;5091530;28;20263;-70
2021/04/29 04:15:31;;;;;;;9.77;6.23;;;10.50;99.90;;;;;;5090907;28;20668;-74
2021/04/29 04:17:57;;;;;;;8.77;6.57;;;10.40;99.90;;;;;;5091131;28;20197;-70
2021/04/29 04:20:24;;;;;;;11.10;6.57;;;10.50;99.90;;;;;;5091215;28;20217;-70
2021/04/29 04:22:51;;;;;;;8.57;6.37;;;10.50;99.90;;;;;;5090407;28;20726;-70
2021/04/29 04:25:18;;;;;;;8.70;7.27;;;10.70;99.90;;;;;;5090837;28;20673;-70
2021/04/29 04:27:44;;;;;;;7.33;6.63;;;10.70;99.90;;;;;;5090249;28;20673;-72
2021/04/29 04:30:12;;;;;;;7.37;6.63;;;10.70;99.90;;;;;;5090961;28;20581;-73
2021/04/29 04:32:38;;;;;;;8.97;6.00;;;10.70;99.90;;;;;;5090927;28;20213;-74
2021/04/29 04:35:06;;;;;;;10.00;6.83;;;10.70;99.90;;;;;;5090819;28;20283;-69
2021/04/29 04:37:33;;;;;;;6.23;5.63;;;10.90;99.90;;;;;;5091241;28;20232;-69
2021/04/29 04:40:00;;;;;;;9.20;6.57;;;10.80;99.90;;;;;;5090333;28;20209;-69
2021/04/29 04:42:26;;;;;;;9.73;6.67;;;10.90;99.90;;;;;;5090835;28;20213;-69
2021/04/29 04:44:53;;;;;;;7.97;6.10;;;10.80;99.90;;;;;;5090415;28;20667;-68
2021/04/29 04:47:19;;;;;;;8.43;5.93;;;10.70;99.90;;;;;;5090400;28;20665;-69
2021/04/29 04:49:46;;;;;;;7.73;6.20;;;10.70;99.90;;;;;;5089900;28;20254;-71
2021/04/29 04:52:12;;;;;;;11.43;6.40;;;10.70;99.90;;;;;;5090155;28;20237;-69
2021/04/29 04:54:39;;;;;;;10.70;7.57;;;10.80;99.90;;;;;;5090755;28;20212;-72
2021/04/29 04:57:08;;;;;;;12.13;6.57;;;10.80;99.90;;;;;;5090599;28;20213;-70
2021/04/29 04:59:35;;;;;;;10.10;5.70;;;10.90;99.90;;;;;;5090831;28;20201;-71
2021/04/29 05:02:01;;;;;;;9.93;5.73;;;10.80;99.90;;;;;;5089873;28;20213;-74
2021/04/29 05:04:29;;;;;;;12.63;6.27;;;10.90;99.90;;;;;;5090607;28;20232;-72
2021/04/29 05:06:56;;;;;;;5.20;4.73;;;10.80;99.90;;;;;;5090214;28;20208;-76
2021/04/29 05:09:23;;;;;;;7.37;6.40;;;10.80;99.90;;;;;;5090143;28;20589;-70
2021/04/29 05:11:50;;;;;;;11.20;5.67;;;10.80;99.90;;;;;;5089955;28;20236;-71
2021/04/29 05:14:17;;;;;;;8.10;5.30;;;10.90;99.90;;;;;;5090180;28;20206;-70
2021/04/29 05:16:44;;;;;;;6.33;5.33;;;10.80;99.90;;;;;;5093017;28;20209;-74
2021/04/29 05:19:10;;;;;;;5.33;4.70;;;10.70;99.90;;;;;;5094614;28;20590;-69
2021/04/29 05:21:38;;;;;;;6.43;4.40;;;10.60;99.90;;;;;;5094706;28;20216;-69
2021/04/29 05:24:05;;;;;;;4.27;3.77;;;10.60;99.90;;;;;;5094747;28;20259;-69
2021/04/29 05:26:31;;;;;;;5.30;3.50;;;10.70;99.90;;;;;;5094810;28;20278;-74
2021/04/29 05:28:58;;;;;;;10.50;4.83;;;10.60;99.90;;;;;;5094270;28;20573;-69
2021/04/29 05:31:25;;;;;;;11.73;4.97;;;10.60;99.90;;;;;;5084333;28;20256;-70
2021/04/29 05:33:51;;;;;;;5.33;3.87;;;10.70;99.90;;;;;;5067687;28;20207;-69
2021/04/29 05:36:18;;;;;;;4.83;4.33;;;10.70;99.90;;;;;;5083837;28;20217;-69
2021/04/29 05:38:45;;;;;;;4.57;3.80;;;10.80;99.90;;;;;;5093022;28;20628;-78
2021/04/29 05:41:11;;;;;;;6.40;4.37;;;10.70;99.90;;;;;;5085753;28;20696;-72
2021/04/29 05:43:38;;;;;;;7.00;4.17;;;10.70;99.90;;;;;;5094136;28;20573;-70
2021/04/29 05:46:05;;;;;;;7.97;5.13;;;10.70;99.90;;;;;;5093863;28;20209;-69
2021/04/29 05:48:32;;;;;;;7.17;4.40;;;10.70;99.90;;;;;;5093832;28;20687;-70
2021/04/29 05:50:59;;;;;;;4.77;4.27;;;10.70;99.90;;;;;;5092889;28;20237;-68
2021/04/29 05:53:26;;;;;;;6.90;4.93;;;10.70;99.90;;;;;;5088069;28;20255;-70
2021/04/29 05:55:52;;;;;;;6.10;3.90;;;10.70;99.90;;;;;;5093876;28;20202;-70
2021/04/29 05:58:19;;;;;;;6.97;3.90;;;10.80;99.90;;;;;;5093868;28;20697;-69
2021/04/29 06:00:46;;;;;;;5.47;4.57;;;10.80;99.90;;;;;;5077423;28;20734;-70
2021/04/29 06:03:14;;;;;;;6.97;4.23;;;10.90;99.90;;;;;;5063084;28;20598;-71
2021/04/29 06:05:40;;;;;;;5.37;4.43;;;10.80;99.90;;;;;;5066832;28;20221;-70
2021/04/29 06:08:07;;;;;;;5.70;4.63;;;10.80;99.90;;;;;;5061499;28;20272;-70
2021/04/29 06:10:35;;;;;;;6.40;4.53;;;10.80;99.90;;;;;;5063374;28;20227;-71
2021/04/29 06:13:02;;;;;;;6.27;4.20;;;10.90;99.90;;;;;;5061022;28;20743;-71
2021/04/29 06:15:28;;;;;;;5.63;5.10;;;10.80;99.90;;;;;;5067431;28;20248;-69
2021/04/29 06:17:55;;;;;;;8.60;5.50;;;10.80;99.90;;;;;;5062817;28;20203;-71
2021/04/29 06:20:23;;;;;;;9.17;6.87;;;10.70;99.90;;;;;;5065403;28;20225;-74
2021/04/29 06:22:49;;;;;;;10.40;8.10;;;10.80;99.90;;;;;;5065646;28;20202;-72
2021/04/29 06:25:17;;;;;;;6.87;6.13;;;10.90;99.90;;;;;;5073849;28;20202;-72
2021/04/29 06:27:44;;;;;;;7.00;5.23;;;11.00;99.90;;;;;;5073294;28;20206;-72
2021/04/29 06:30:12;;;;;;;9.17;6.13;;;11.10;99.90;;;;;;5073450;28;20206;-72
2021/04/29 06:32:38;;;;;;;6.13;5.10;;;11.10;99.90;;;;;;5073380;28;20725;-72
2021/04/29 06:35:06;;;;;;;6.80;5.70;;;11.10;99.90;;;;;;5077457;28;20198;-72
2021/04/29 06:37:33;;;;;;;11.63;7.40;;;11.10;99.90;;;;;;5093576;28;20209;-71
2021/04/29 06:40:00;;;;;;;8.67;6.73;;;11.20;99.90;;;;;;5092530;28;20206;-71
2021/04/29 06:42:26;;;;;;;12.50;8.57;;;11.10;99.90;;;;;;5092992;28;20673;-71
2021/04/29 06:44:53;;;;;;;14.10;8.13;;;10.90;99.90;;;;;;5089221;28;20307;-71
2021/04/29 06:47:22;;;;;;;15.73;9.03;;;10.90;99.90;;;;;;5093162;28;20206;-71
2021/04/29 06:49:49;;;;;;;11.47;7.57;;;10.90;99.90;;;;;;5086711;28;20220;-71
2021/04/29 06:52:18;;;;;;;22.50;12.83;;;11.00;99.90;;;;;;5075965;28;20237;-69
2021/04/29 06:54:46;;;;;;;20.57;12.77;;;11.00;99.90;;;;;;5084147;28;20236;-69
2021/04/29 06:57:12;;;;;;;17.77;13.30;;;11.00;99.90;;;;;;5068994;28;20208;-70
2021/04/29 06:59:39;;;;;;;16.77;10.30;;;11.00;99.90;;;;;;5090554;28;20255;-69
2021/04/29 07:02:05;;;;;;;16.70;9.90;;;10.90;99.90;;;;;;5083489;28;20210;-70
2021/04/29 07:04:32;;;;;;;10.73;7.17;;;11.10;99.90;;;;;;5077297;28;20208;-69
2021/04/29 07:06:58;;;;;;;13.83;7.97;;;11.10;99.90;;;;;;5084415;28;20212;-69
2021/04/29 07:09:25;;;;;;;10.17;7.23;;;11.00;99.90;;;;;;5057361;28;20203;-70
2021/04/29 07:11:53;;;;;;;9.97;5.03;;;11.10;99.90;;;;;;5067394;28;20234;-70
2021/04/29 07:14:20;;;;;;;8.07;5.37;;;11.10;99.90;;;;;;5068463;28;20209;-71
2021/04/29 07:16:46;;;;;;;6.77;4.40;;;11.20;99.90;;;;;;5084722;28;20206;-71
2021/04/29 07:19:13;;;;;;;6.30;4.17;;;11.30;99.90;;;;;;5086424;28;20202;-70
2021/04/29 07:21:39;;;;;;;5.90;4.20;;;11.30;99.90;;;;;;5079504;28;20206;-72
2021/04/29 07:24:07;;;;;;;7.60;4.00;;;11.30;99.90;;;;;;5078397;28;20199;-71
2021/04/29 07:26:34;;;;;;;7.43;3.80;;;11.40;99.90;;;;;;5061481;28;20205;-71
2021/04/29 07:29:01;;;;;;;7.67;4.13;;;11.50;99.90;;;;;;5074052;28;20210;-71
2021/04/29 07:31:27;;;;;;;9.47;3.37;;;11.50;99.90;;;;;;5085133;28;20229;-72
2021/04/29 07:33:54;;;;;;;3.70;3.40;;;11.60;99.90;;;;;;5074197;28;20630;-73
2021/04/29 07:36:21;;;;;;;6.40;3.63;;;11.70;99.90;;;;;;5089675;28;20213;-71
2021/04/29 07:38:47;;;;;;;4.17;3.77;;;11.60;99.90;;;;;;5073438;28;20228;-72
2021/04/29 07:41:14;;;;;;;6.33;3.00;;;11.50;99.90;;;;;;5083452;28;20630;-71
2021/04/29 07:43:40;;;;;;;4.40;3.57;;;11.40;99.90;;;;;;5076088;28;20198;-71
2021/04/29 07:46:08;;;;;;;4.20;2.90;;;11.40;99.90;;;;;;5073352;28;20202;-73
2021/04/29 07:48:34;;;;;;;9.57;3.37;;;11.50;99.90;;;;;;5074726;28;20679;-75
2021/04/29 07:51:01;;;;;;;5.17;3.63;;;11.50;99.90;;;;;;5082586;28;20229;-75
2021/04/29 07:53:27;;;;;;;4.63;3.23;;;11.50;99.90;;;;;;5078683;28;20292;-71
2021/04/29 07:55:54;;;;;;;5.00;2.80;;;11.50;99.90;;;;;;5082283;28;20205;-72
2021/04/29 07:58:20;;;;;;;6.47;3.60;;;11.50;99.90;;;;;;5082050;28;20210;-72
2021/04/29 08:00:47;;;;;;;6.27;3.13;;;11.60;99.90;;;;;;5075934;28;20201;-72
2021/04/29 08:03:14;;;;;;;6.83;3.33;;;11.70;99.90;;;;;;5082614;28;20251;-72
2021/04/29 08:05:40;;;;;;;3.20;2.63;;;11.70;99.90;;;;;;5073551;28;20205;-71
2021/04/29 08:08:08;;;;;;;4.77;3.27;;;11.80;99.90;;;;;;5088765;28;20318;-74
2021/04/29 08:10:35;;;;;;;6.87;3.97;;;11.80;99.90;;;;;;5085145;28;20199;-73
2021/04/29 08:13:02;;;;;;;5.87;3.23;;;11.90;99.90;;;;;;5088250;28;20227;-72
2021/04/29 08:15:28;;;;;;;11.50;4.27;;;11.70;99.90;;;;;;5075104;28;20214;-71
2021/04/29 08:17:54;;;;;;;5.93;3.50;;;11.70;99.90;;;;;;5060610;28;20205;-71
2021/04/29 08:20:22;;;;;;;5.30;3.40;;;11.90;99.90;;;;;;5064809;28;20207;-72
2021/04/29 08:22:48;;;;;;;5.45;4.22;;;12.00;99.90;;;;;;5074794;28;20217;-72
2021/04/29 08:25:15;;;;;;;5.40;3.80;;;12.20;99.90;;;;;;5075867;28;20587;-72
2021/04/29 08:27:41;;;;;;;5.18;4.60;;;12.30;99.90;;;;;;5070642;28;20674;-75
2021/04/29 08:30:08;;;;;;;8.35;3.83;;;12.30;99.90;;;;;;5074415;28;20625;-73
2021/04/29 08:32:35;;;;;;;5.60;3.75;;;12.20;99.90;;;;;;5077479;28;20233;-73
2021/04/29 08:35:02;;;;;;;8.15;4.03;;;12.00;99.90;;;;;;5081074;28;20209;-72
2021/04/29 08:37:29;;;;;;;5.17;2.90;;;12.00;99.90;;;;;;5071254;28;20598;-72
2021/04/29 08:39:55;;;;;;;3.55;2.75;;;11.90;99.90;;;;;;5071439;28;20206;-73
2021/04/29 08:42:26;;;;;;;4.57;3.37;;;11.90;99.90;;;;;;5066385;28;20210;-73
2021/04/29 08:44:53;;;;;;;4.57;3.37;;;12.00;99.90;;;;;;5082528;28;20205;-73
2021/04/29 08:47:19;;;;;;;6.17;3.37;;;12.00;99.90;;;;;;5065065;28;20202;-72
2021/04/29 08:49:45;;;;;;;4.40;2.87;;;12.10;99.90;;;;;;5064026;28;20630;-73
2021/04/29 08:52:14;;;;;;;3.15;2.85;;;12.30;99.90;;;;;;5059084;28;20650;-74
2021/04/29 08:54:46;;;;;;;4.53;2.90;;;12.40;99.90;;;;;;5071121;28;20720;-72
2021/04/29 08:57:13;;;;;;;8.73;3.58;;;12.40;99.90;;;;;;5061376;28;20289;-72
2021/04/29 08:59:39;;;;;;;8.35;4.28;;;12.50;99.90;;;;;;5079842;28;20244;-72
2021/04/29 09:02:06;;;;;;;9.40;2.95;;;12.60;99.90;;;;;;5089206;28;20231;-72
2021/04/29 09:04:39;;;;;;;4.63;3.08;;;12.30;99.90;;;;;;5089361;28;20201;-73
2021/04/29 09:07:12;;;;;;;5.60;3.17;;;12.10;99.90;;;;;;5086697;28;20669;-73
2021/04/29 09:09:42;;;;;;;4.18;2.65;;;12.10;99.90;;;;;;5088452;28;20205;-74
2021/04/29 09:12:09;;;;;;;5.47;3.53;;;12.10;99.90;;;;;;5085556;28;20230;-73
2021/04/29 09:14:37;;;;;;;6.23;3.37;;;12.10;99.90;;;;;;5088091;28;20210;-72
2021/04/29 09:17:04;;;;;;;9.40;3.97;;;12.30;99.90;;;;;;5084325;28;20247;-73
2021/04/29 09:19:35;;;;;;;7.40;3.73;;;12.40;99.90;;;;;;5082090;28;20250;-71
2021/04/29 09:22:02;;;;;;;5.70;3.27;;;12.50;99.90;;;;;;5063214;28;20199;-73
2021/04/29 09:24:33;;;;;;;5.43;3.13;;;12.80;99.90;;;;;;5073887;28;20259;-74
2021/04/29 09:27:11;;;;;;;8.40;3.63;;;12.80;99.90;;;;;;5072640;28;20660;-73
2021/04/29 09:29:59;;;;;;;3.75;2.47;;;12.80;99.90;;;;;;5080716;28;20574;-74
2021/04/29 09:32:29;;;;;;;5.68;2.95;;;13.00;99.90;;;;;;5070690;28;20238;-76
2021/04/29 09:34:56;;;;;;;6.97;2.33;;;13.00;99.90;;;;;;5075663;28;20236;-72
2021/04/29 09:37:31;;;;;;;6.35;2.58;;;13.20;99.90;;;;;;5064772;28;20214;-73
2021/04/29 09:39:58;;;;;;;4.38;2.88;;;13.30;99.90;;;;;;5062047;28;20434;-74
2021/04/29 09:42:30;;;;;;;5.40;2.70;;;13.40;99.90;;;;;;5064978;28;20683;-74
2021/04/29 09:44:57;;;;;;;6.50;3.13;;;13.10;99.90;;;;;;5055451;28;20674;-72
2021/04/29 09:47:23;;;;;;;2.90;2.30;;;13.00;99.90;;;;;;5061559;28;20245;-72
2021/04/29 09:49:50;;;;;;;5.65;3.60;;;13.20;99.90;;;;;;5064424;28;20245;-73
2021/04/29 09:52:18;;;;;;;9.00;4.13;;;13.70;99.90;;;;;;5074250;28;20234;-72
2021/04/29 09:54:44;;;;;;;12.27;5.32;;;13.40;99.90;;;;;;5080307;28;20224;-71
2021/04/29 09:57:14;;;;;;;6.50;3.42;;;13.30;99.90;;;;;;5088533;28;20201;-72
2021/04/29 09:59:43;;;;;;;6.30;3.03;;;13.40;99.90;;;;;;5087311;28;20754;-73
2021/04/29 10:02:11;;;;;;;6.75;2.58;;;13.40;99.90;;;;;;5087166;28;20232;-72
2021/04/29 10:04:39;;;;;;;4.88;2.67;;;13.70;99.90;;;;;;5076843;28;20209;-73
2021/04/29 10:07:08;;;;;;;3.17;2.58;;;13.80;99.90;;;;;;5074507;28;20255;-73
2021/04/29 10:09:36;;;;;;;4.13;3.08;;;13.50;99.90;;;;;;5080038;28;20206;-72
2021/04/29 10:12:06;;;;;;;7.95;3.17;;;13.30;99.90;;;;;;5076816;28;20324;-73
2021/04/29 10:14:34;;;;;;;5.63;3.63;;;13.30;99.90;;;;;;5074725;28;20199;-73
2021/04/29 10:17:04;;;;;;;9.45;3.20;;;13.80;99.90;;;;;;5070884;28;20206;-75
2021/04/29 10:19:35;;;;;;;4.35;3.55;;;14.40;99.90;;;;;;5065235;28;20750;-73
2021/04/29 10:22:02;;;;;;;3.75;3.05;;;14.60;99.90;;;;;;5075619;28;20210;-75
2021/04/29 10:24:28;;;;;;;8.13;3.40;;;14.60;99.90;;;;;;5082204;28;20603;-71
2021/04/29 10:27:02;;;;;;;4.47;2.92;;;15.30;99.90;;;;;;5071810;28;20688;-73
2021/04/29 10:29:28;;;;;;;6.55;3.20;;;15.50;99.90;;;;;;5082345;28;20213;-74
2021/04/29 10:31:56;;;;;;;4.65;2.78;;;15.90;99.90;;;;;;5082275;28;20670;-70
2021/04/29 10:34:24;;;;;;;5.25;2.70;;;16.10;99.90;;;;;;5071641;28;20209;-72
2021/04/29 10:36:51;;;;;;;3.45;2.38;;;16.10;99.90;;;;;;5078016;28;20283;-70
2021/04/29 10:39:20;;;;;;;4.80;2.25;;;15.80;99.90;;;;;;5070728;28;20210;-70
2021/04/29 10:41:48;;;;;;;3.90;1.92;;;15.80;99.90;;;;;;5071314;28;20202;-70
2021/04/29 10:44:16;;;;;;;3.67;1.92;;;14.80;99.90;;;;;;5084126;28;20567;-70
2021/04/29 10:46:44;;;;;;;4.78;1.92;;;14.60;99.90;;;;;;5070053;28;20585;-68
2021/04/29 10:49:12;;;;;;;5.00;2.10;;;14.70;99.90;;;;;;5071900;28;20206;-69
2021/04/29 10:51:41;;;;;;;3.75;1.50;;;14.70;99.90;;;;;;5075668;28;20317;-69
2021/04/29 10:54:16;;;;;;;4.65;2.00;;;15.10;99.90;;;;;;5072565;28;20724;-69
2021/04/29 10:56:59;;;;;;;4.22;2.25;;;15.30;99.90;;;;;;5074949;28;20735;-70
2021/04/29 10:59:37;;;;;;;2.55;1.83;;;15.40;99.90;;;;;;5074307;28;20210;-70
2021/04/29 11:02:04;;;;;;;3.50;1.63;;;15.20;99.90;;;;;;5074161;28;20229;-70
2021/04/29 11:04:40;;;;;;;5.80;1.92;;;15.30;99.90;;;;;;5079470;28;20206;-70
2021/04/29 11:07:12;;;;;;;5.88;2.15;;;15.10;99.90;;;;;;5076398;28;20198;-69
2021/04/29 11:09:38;;;;;;;3.88;2.10;;;15.00;99.90;;;;;;5085493;28;20206;-70
2021/04/29 11:12:07;;;;;;;2.60;1.80;;;14.60;99.90;;;;;;5079973;28;20245;-69
2021/04/29 11:14:41;;;;;;;3.50;1.95;;;14.60;99.90;;;;;;5071324;28;20212;-69
2021/04/29 11:17:19;;;;;;;2.08;1.50;;;14.70;99.90;;;;;;5073953;28;20202;-68
2021/04/29 11:19:48;;;;;;;3.58;1.85;;;14.70;99.90;;;;;;5073035;28;20198;-69
2021/04/29 11:22:20;;;;;;;6.13;2.05;;;14.80;99.90;;;;;;5076236;28;20246;-71
2021/04/29 11:24:48;;;;;;;3.28;1.67;;;15.10;99.90;;;;;;5064019;28;20202;-70
2021/04/29 11:27:20;;;;;;;2.30;1.70;;;15.10;99.90;;;;;;5078056;28;20753;-69
2021/04/29 11:29:46;;;;;;;2.63;2.03;;;15.50;99.90;;;;;;5073490;28;20202;-70
2021/04/29 11:32:13;;;;;;;4.03;1.77;;;15.90;99.90;;;;;;5078423;28;20245;-70
2021/04/29 11:34:41;;;;;;;5.43;1.88;;;16.00;99.90;;;;;;5074855;28;20202;-69
2021/04/29 11:37:08;;;;;;;5.03;2.47;;;16.20;99.90;;;;;;5064481;28;20587;-70
2021/04/29 11:39:36;;;;;;;1.83;1.48;;;15.90;99.90;;;;;;5088746;28;20207;-70
2021/04/29 11:42:03;;;;;;;2.92;1.98;;;16.20;99.90;;;;;;5090383;28;20233;-70
2021/04/29 11:44:30;;;;;;;3.75;2.03;;;15.90;99.90;;;;;;5091857;28;20235;-71
2021/04/29 11:47:00;;;;;;;3.08;1.88;;;16.20;99.90;;;;;;5091036;28;20201;-71
2021/04/29 11:49:26;;;;;;;1.73;1.58;;;16.20;99.90;;;;;;5091592;28;20228;-71
2021/04/29 11:51:53;;;;;;;4.07;2.15;;;16.40;99.90;;;;;;5091228;28;20229;-70
2021/04/29 11:54:19;;;;;;;3.80;2.20;;;16.80;99.90;;;;;;5085741;28;20208;-71
2021/04/29 11:56:48;;;;;;;5.22;1.80;;;16.30;99.90;;;;;;5091497;28;20206;-70
2021/04/29 11:59:17;;;;;;;3.03;2.10;;;16.70;99.90;;;;;;5091646;28;20210;-70
2021/04/29 12:01:56;;;;;;;3.85;1.80;;;16.60;99.90;;;;;;5091152;28;20213;-71
2021/04/29 12:04:24;;;;;;;8.55;2.20;;;16.60;99.90;;;;;;5091229;28;20216;-70
2021/04/29 12:06:51;;;;;;;6.93;2.35;;;17.30;99.90;;;;;;5091512;28;20209;-71
2021/04/29 12:09:18;;;;;;;5.80;2.50;;;17.60;99.90;;;;;;5091184;28;20217;-70
2021/04/29 12:11:45;;;;;;;6.28;2.47;;;17.30;99.90;;;;;;5090890;28;20237;-68
2021/04/29 12:14:14;;;;;;;4.65;2.25;;;17.60;99.90;;;;;;5069110;28;20688;-69
2021/04/29 12:16:41;;;;;;;1.60;1.20;;;17.60;99.90;;;;;;5075934;28;20210;-67
2021/04/29 12:19:07;;;;;;;4.35;2.03;;;18.20;99.90;;;;;;5078423;28;20206;-67
2021/04/29 12:21:34;;;;;;;3.10;2.00;;;18.20;99.90;;;;;;5079048;28;20205;-73
2021/04/29 12:24:03;;;;;;;1.48;1.30;;;17.80;99.90;;;;;;5074020;28;20662;-68
2021/04/29 12:26:32;;;;;;;4.57;1.83;;;17.50;99.90;;;;;;5066272;28;20220;-68
2021/04/29 12:29:05;;;;;;;2.88;1.63;;;17.20;99.90;;;;;;5081913;28;20213;-71
2021/04/29 12:31:31;;;;;;;3.25;1.23;;;16.70;99.90;;;;;;5066660;28;20264;-70
2021/04/29 12:34:04;;;;;;;3.25;1.73;;;16.90;99.90;;;;;;5079505;28;20295;-69
2021/04/29 12:36:32;;;;;;;4.65;2.15;;;16.90;99.90;;;;;;5076319;28;20198;-69
2021/04/29 12:38:58;;;;;;;1.25;1.15;;;17.00;99.90;;;;;;5063670;28;20267;-71
2021/04/29 12:41:26;;;;;;;3.20;1.70;;;16.50;99.90;;;;;;5071983;28;20214;-69
2021/04/29 12:44:00;;;;;;;4.60;2.33;;;16.70;99.90;;;;;;5079783;28;20556;-70
2021/04/29 12:46:33;;;;;;;3.00;1.83;;;16.80;99.90;;;;;;5073812;28;20209;-73
2021/04/29 12:49:00;;;;;;;4.30;1.70;;;17.50;99.90;;;;;;5073795;28;20738;-69